sensor_id;sensor_type;location;lat;lon;timestamp;P1;durP1;ratioP1;P2;durP2;ratioP2
34872;SDS011;21084;51.098;14.506;2022-09-04T00:00:41;18.77;;;12.63;;
34872;SDS011;21084;51.098;14.506;2022-09-04T00:03:20;18.73;;;12.57;;
34872;SDS011;21084;51.098;14.506;2022-09-04T00:06:03;18.92;;;11.45;;
34872;SDS011;21084;51.098;14.506;2022-09-04T00:08:41;17.85;;;11.63;;
34872;SDS011;21084;51.098;14.506;2022-09-04T00:11:21;17.80;;;11.65;;
34872;SDS011;21084;51.098;14.506;2022-09-04T00:13:57;18.67;;;12.15;;
34872;SDS011;21084;51.098;14.506;2022-09-04T00:16:27;20.30;;;11.57;;
34872;SDS011;21084;51.098;14.506;2022-09-04T00:19:02;16.83;;;11.00;;
34872;SDS011;21084;51.098;14.506;2022-09-04T00:21:38;18.77;;;12.10;;
34872;SDS011;21084;51.098;14.506;2022-09-04T00:24:13;18.15;;;12.02;;
34872;SDS011;21084;51.098;14.506;2022-09-04T00:26:45;16.55;;;11.50;;
34872;SDS011;21084;51.098;14.506;2022-09-04T00:29:20;18.00;;;12.73;;
34872;SDS011;21084;51.098;14.506;2022-09-04T00:31:55;18.33;;;13.10;;
34872;SDS011;21084;51.098;14.506;2022-09-04T00:34:36;21.40;;;15.15;;
34872;SDS011;21084;51.098;14.506;2022-09-04T00:37:17;21.98;;;13.73;;
34872;SDS011;21084;51.098;14.506;2022-09-04T00:39:49;22.02;;;14.65;;
34872;SDS011;21084;51.098;14.506;2022-09-04T00:42:31;20.27;;;15.00;;
34872;SDS011;21084;51.098;14.506;2022-09-04T00:45:34;21.50;;;14.75;;
34872;SDS011;21084;51.098;14.506;2022-09-04T00:48:18;21.20;;;14.45;;
34872;SDS011;21084;51.098;14.506;2022-09-04T00:51:12;20.58;;;13.43;;
34872;SDS011;21084;51.098;14.506;2022-09-04T00:53:53;21.35;;;13.75;;
34872;SDS011;21084;51.098;14.506;2022-09-04T00:56:40;19.40;;;13.90;;
34872;SDS011;21084;51.098;14.506;2022-09-04T00:59:43;21.35;;;13.40;;
34872;SDS011;21084;51.098;14.506;2022-09-04T01:02:24;20.50;;;13.75;;
34872;SDS011;21084;51.098;14.506;2022-09-04T01:04:59;20.63;;;13.95;;
34872;SDS011;21084;51.098;14.506;2022-09-04T01:07:46;17.48;;;13.00;;
34872;SDS011;21084;51.098;14.506;2022-09-04T01:10:25;20.00;;;14.35;;
34872;SDS011;21084;51.098;14.506;2022-09-04T01:13:02;18.23;;;13.65;;
34872;SDS011;21084;51.098;14.506;2022-09-04T01:15:38;20.48;;;13.55;;
34872;SDS011;21084;51.098;14.506;2022-09-04T01:18:12;20.23;;;13.63;;
34872;SDS011;21084;51.098;14.506;2022-09-04T01:20:52;21.30;;;13.98;;
34872;SDS011;21084;51.098;14.506;2022-09-04T01:26:36;21.23;;;14.15;;
34872;SDS011;21084;51.098;14.506;2022-09-04T01:29:15;21.63;;;14.23;;
34872;SDS011;21084;51.098;14.506;2022-09-04T01:31:54;20.85;;;14.10;;
34872;SDS011;21084;51.098;14.506;2022-09-04T01:34:43;20.45;;;14.27;;
34872;SDS011;21084;51.098;14.506;2022-09-04T01:37:22;19.20;;;14.35;;
34872;SDS011;21084;51.098;14.506;2022-09-04T01:39:58;19.58;;;13.75;;
34872;SDS011;21084;51.098;14.506;2022-09-04T01:42:49;23.17;;;15.25;;
34872;SDS011;21084;51.098;14.506;2022-09-04T01:45:25;20.83;;;14.93;;
34872;SDS011;21084;51.098;14.506;2022-09-04T01:48:08;26.58;;;14.70;;
34872;SDS011;21084;51.098;14.506;2022-09-04T01:50:39;20.10;;;14.52;;
34872;SDS011;21084;51.098;14.506;2022-09-04T01:53:11;19.85;;;14.15;;
34872;SDS011;21084;51.098;14.506;2022-09-04T01:55:46;20.15;;;13.90;;
34872;SDS011;21084;51.098;14.506;2022-09-04T01:58:24;20.15;;;14.20;;
34872;SDS011;21084;51.098;14.506;2022-09-04T02:01:03;21.70;;;15.05;;
34872;SDS011;21084;51.098;14.506;2022-09-04T02:03:42;24.00;;;15.05;;
34872;SDS011;21084;51.098;14.506;2022-09-04T02:06:19;19.85;;;14.52;;
34872;SDS011;21084;51.098;14.506;2022-09-04T02:08:59;19.75;;;14.20;;
34872;SDS011;21084;51.098;14.506;2022-09-04T02:11:39;18.73;;;14.15;;
34872;SDS011;21084;51.098;14.506;2022-09-04T02:14:28;24.58;;;14.38;;
34872;SDS011;21084;51.098;14.506;2022-09-04T02:17:06;21.73;;;15.38;;
34872;SDS011;21084;51.098;14.506;2022-09-04T02:19:44;17.30;;;13.20;;
34872;SDS011;21084;51.098;14.506;2022-09-04T02:22:25;18.75;;;14.15;;
34872;SDS011;21084;51.098;14.506;2022-09-04T02:24:59;21.42;;;14.35;;
34872;SDS011;21084;51.098;14.506;2022-09-04T02:27:35;21.58;;;14.40;;
34872;SDS011;21084;51.098;14.506;2022-09-04T02:30:14;17.00;;;13.65;;
34872;SDS011;21084;51.098;14.506;2022-09-04T02:32:47;19.40;;;15.25;;
34872;SDS011;21084;51.098;14.506;2022-09-04T02:35:23;20.60;;;15.02;;
34872;SDS011;21084;51.098;14.506;2022-09-04T02:38:03;22.70;;;14.32;;
34872;SDS011;21084;51.098;14.506;2022-09-04T02:40:41;20.02;;;14.55;;
34872;SDS011;21084;51.098;14.506;2022-09-04T02:43:20;20.13;;;14.20;;
34872;SDS011;21084;51.098;14.506;2022-09-04T02:46:08;20.73;;;14.02;;
34872;SDS011;21084;51.098;14.506;2022-09-04T02:48:46;24.15;;;14.95;;
34872;SDS011;21084;51.098;14.506;2022-09-04T02:51:27;19.83;;;15.48;;
34872;SDS011;21084;51.098;14.506;2022-09-04T02:54:08;21.33;;;14.55;;
34872;SDS011;21084;51.098;14.506;2022-09-04T02:56:43;22.35;;;14.23;;
34872;SDS011;21084;51.098;14.506;2022-09-04T02:59:23;20.02;;;14.38;;
34872;SDS011;21084;51.098;14.506;2022-09-04T03:02:00;20.40;;;14.93;;
34872;SDS011;21084;51.098;14.506;2022-09-04T03:04:32;22.52;;;15.13;;
34872;SDS011;21084;51.098;14.506;2022-09-04T03:07:07;22.58;;;14.85;;
34872;SDS011;21084;51.098;14.506;2022-09-04T03:09:41;17.70;;;13.73;;
34872;SDS011;21084;51.098;14.506;2022-09-04T03:12:20;18.13;;;13.80;;
34872;SDS011;21084;51.098;14.506;2022-09-04T03:15:00;22.52;;;14.55;;
34872;SDS011;21084;51.098;14.506;2022-09-04T03:17:37;19.98;;;14.40;;
34872;SDS011;21084;51.098;14.506;2022-09-04T03:20:14;20.67;;;14.23;;
34872;SDS011;21084;51.098;14.506;2022-09-04T03:22:49;17.92;;;13.45;;
34872;SDS011;21084;51.098;14.506;2022-09-04T03:25:39;21.27;;;14.40;;
34872;SDS011;21084;51.098;14.506;2022-09-04T03:28:39;20.63;;;14.50;;
34872;SDS011;21084;51.098;14.506;2022-09-04T03:31:26;22.48;;;14.50;;
34872;SDS011;21084;51.098;14.506;2022-09-04T03:34:02;18.80;;;14.27;;
34872;SDS011;21084;51.098;14.506;2022-09-04T03:36:40;18.10;;;13.00;;
34872;SDS011;21084;51.098;14.506;2022-09-04T03:39:22;21.40;;;14.38;;
34872;SDS011;21084;51.098;14.506;2022-09-04T03:41:57;20.98;;;14.02;;
34872;SDS011;21084;51.098;14.506;2022-09-04T03:44:38;18.33;;;12.98;;
34872;SDS011;21084;51.098;14.506;2022-09-04T03:47:20;23.50;;;13.68;;
34872;SDS011;21084;51.098;14.506;2022-09-04T03:49:58;17.75;;;12.65;;
34872;SDS011;21084;51.098;14.506;2022-09-04T03:52:40;19.00;;;14.20;;
34872;SDS011;21084;51.098;14.506;2022-09-04T03:55:23;18.08;;;12.65;;
34872;SDS011;21084;51.098;14.506;2022-09-04T03:58:13;18.80;;;12.85;;
34872;SDS011;21084;51.098;14.506;2022-09-04T04:00:50;16.83;;;13.40;;
34872;SDS011;21084;51.098;14.506;2022-09-04T04:03:31;18.00;;;14.65;;
34872;SDS011;21084;51.098;14.506;2022-09-04T04:06:20;19.70;;;14.40;;
34872;SDS011;21084;51.098;14.506;2022-09-04T04:09:02;22.13;;;13.98;;
34872;SDS011;21084;51.098;14.506;2022-09-04T04:11:45;18.90;;;14.13;;
34872;SDS011;21084;51.098;14.506;2022-09-04T04:14:42;20.48;;;14.10;;
34872;SDS011;21084;51.098;14.506;2022-09-04T04:17:35;19.50;;;14.38;;
34872;SDS011;21084;51.098;14.506;2022-09-04T04:20:27;20.08;;;14.48;;
34872;SDS011;21084;51.098;14.506;2022-09-04T04:23:11;25.17;;;15.35;;
34872;SDS011;21084;51.098;14.506;2022-09-04T04:25:59;22.20;;;15.38;;
34872;SDS011;21084;51.098;14.506;2022-09-04T04:31:43;17.95;;;14.65;;
34872;SDS011;21084;51.098;14.506;2022-09-04T04:34:39;19.38;;;14.43;;
34872;SDS011;21084;51.098;14.506;2022-09-04T04:37:15;21.90;;;14.45;;
34872;SDS011;21084;51.098;14.506;2022-09-04T04:39:51;20.50;;;14.48;;
34872;SDS011;21084;51.098;14.506;2022-09-04T04:42:30;16.30;;;12.90;;
34872;SDS011;21084;51.098;14.506;2022-09-04T04:45:10;25.37;;;15.63;;
34872;SDS011;21084;51.098;14.506;2022-09-04T04:51:07;27.52;;;16.35;;
34872;SDS011;21084;51.098;14.506;2022-09-04T04:53:48;24.23;;;17.55;;
34872;SDS011;21084;51.098;14.506;2022-09-04T04:56:25;23.83;;;17.13;;
34872;SDS011;21084;51.098;14.506;2022-09-04T04:59:06;25.27;;;17.75;;
34872;SDS011;21084;51.098;14.506;2022-09-04T05:01:48;22.25;;;17.42;;
34872;SDS011;21084;51.098;14.506;2022-09-04T05:04:23;26.10;;;18.83;;
34872;SDS011;21084;51.098;14.506;2022-09-04T05:06:58;26.30;;;17.55;;
34872;SDS011;21084;51.098;14.506;2022-09-04T05:09:33;23.42;;;17.75;;
34872;SDS011;21084;51.098;14.506;2022-09-04T05:12:09;25.77;;;17.88;;
34872;SDS011;21084;51.098;14.506;2022-09-04T05:14:47;23.77;;;16.95;;
34872;SDS011;21084;51.098;14.506;2022-09-04T05:17:21;25.48;;;16.88;;
34872;SDS011;21084;51.098;14.506;2022-09-04T05:20:11;26.20;;;16.98;;
34872;SDS011;21084;51.098;14.506;2022-09-04T05:22:51;22.60;;;16.67;;
34872;SDS011;21084;51.098;14.506;2022-09-04T05:25:31;20.60;;;15.45;;
34872;SDS011;21084;51.098;14.506;2022-09-04T05:28:09;25.05;;;16.60;;
34872;SDS011;21084;51.098;14.506;2022-09-04T05:30:48;22.60;;;16.08;;
34872;SDS011;21084;51.098;14.506;2022-09-04T05:33:28;23.15;;;15.02;;
34872;SDS011;21084;51.098;14.506;2022-09-04T05:36:04;20.40;;;14.55;;
34872;SDS011;21084;51.098;14.506;2022-09-04T05:38:41;23.48;;;15.25;;
34872;SDS011;21084;51.098;14.506;2022-09-04T05:41:19;19.98;;;15.30;;
34872;SDS011;21084;51.098;14.506;2022-09-04T05:44:08;18.83;;;15.07;;
34872;SDS011;21084;51.098;14.506;2022-09-04T05:47:00;21.17;;;15.23;;
34872;SDS011;21084;51.098;14.506;2022-09-04T05:49:45;18.52;;;15.40;;
34872;SDS011;21084;51.098;14.506;2022-09-04T05:52:34;21.70;;;15.90;;
34872;SDS011;21084;51.098;14.506;2022-09-04T05:55:30;20.85;;;15.65;;
34872;SDS011;21084;51.098;14.506;2022-09-04T05:58:27;22.42;;;15.45;;
34872;SDS011;21084;51.098;14.506;2022-09-04T06:01:10;18.05;;;14.40;;
34872;SDS011;21084;51.098;14.506;2022-09-04T06:03:53;19.40;;;14.63;;
34872;SDS011;21084;51.098;14.506;2022-09-04T06:06:42;18.92;;;14.77;;
34872;SDS011;21084;51.098;14.506;2022-09-04T06:12:04;15.70;;;12.90;;
34872;SDS011;21084;51.098;14.506;2022-09-04T06:17:48;17.52;;;12.90;;
34872;SDS011;21084;51.098;14.506;2022-09-04T06:20:31;16.27;;;13.07;;
34872;SDS011;21084;51.098;14.506;2022-09-04T06:26:16;18.50;;;12.57;;
34872;SDS011;21084;51.098;14.506;2022-09-04T06:28:57;23.08;;;11.90;;
34872;SDS011;21084;51.098;14.506;2022-09-04T06:31:47;16.48;;;11.63;;
34872;SDS011;21084;51.098;14.506;2022-09-04T06:34:30;15.13;;;11.38;;
34872;SDS011;21084;51.098;14.506;2022-09-04T06:37:08;17.58;;;10.77;;
34872;SDS011;21084;51.098;14.506;2022-09-04T06:39:47;14.05;;;10.73;;
34872;SDS011;21084;51.098;14.506;2022-09-04T06:42:30;14.88;;;11.38;;
34872;SDS011;21084;51.098;14.506;2022-09-04T06:45:17;17.50;;;10.35;;
34872;SDS011;21084;51.098;14.506;2022-09-04T06:47:55;18.92;;;10.90;;
34872;SDS011;21084;51.098;14.506;2022-09-04T06:50:32;19.52;;;11.38;;
34872;SDS011;21084;51.098;14.506;2022-09-04T06:53:14;14.23;;;10.48;;
34872;SDS011;21084;51.098;14.506;2022-09-04T06:55:51;13.60;;;10.10;;
34872;SDS011;21084;51.098;14.506;2022-09-04T06:58:44;19.17;;;10.13;;
34872;SDS011;21084;51.098;14.506;2022-09-04T07:01:39;14.30;;;9.68;;
34872;SDS011;21084;51.098;14.506;2022-09-04T07:04:20;12.10;;;8.90;;
34872;SDS011;21084;51.098;14.506;2022-09-04T07:07:04;12.73;;;8.63;;
34872;SDS011;21084;51.098;14.506;2022-09-04T07:09:40;11.85;;;8.35;;
34872;SDS011;21084;51.098;14.506;2022-09-04T07:12:19;13.32;;;8.27;;
34872;SDS011;21084;51.098;14.506;2022-09-04T07:17:58;10.50;;;7.72;;
34872;SDS011;21084;51.098;14.506;2022-09-04T07:20:33;14.40;;;8.05;;
34872;SDS011;21084;51.098;14.506;2022-09-04T07:23:13;11.25;;;7.60;;
34872;SDS011;21084;51.098;14.506;2022-09-04T07:25:53;12.48;;;8.07;;
34872;SDS011;21084;51.098;14.506;2022-09-04T07:28:32;11.45;;;7.32;;
34872;SDS011;21084;51.098;14.506;2022-09-04T07:31:10;13.05;;;7.25;;
34872;SDS011;21084;51.098;14.506;2022-09-04T07:33:47;9.80;;;6.78;;
34872;SDS011;21084;51.098;14.506;2022-09-04T07:36:22;8.40;;;6.47;;
34872;SDS011;21084;51.098;14.506;2022-09-04T07:39:01;9.13;;;6.35;;
34872;SDS011;21084;51.098;14.506;2022-09-04T07:41:40;12.32;;;6.70;;
34872;SDS011;21084;51.098;14.506;2022-09-04T07:44:16;11.85;;;7.70;;
34872;SDS011;21084;51.098;14.506;2022-09-04T07:46:51;10.45;;;6.70;;
34872;SDS011;21084;51.098;14.506;2022-09-04T07:49:28;12.57;;;6.43;;
34872;SDS011;21084;51.098;14.506;2022-09-04T07:52:01;9.45;;;5.93;;
34872;SDS011;21084;51.098;14.506;2022-09-04T07:54:46;8.27;;;6.00;;
34872;SDS011;21084;51.098;14.506;2022-09-04T08:00:36;7.60;;;5.80;;
34872;SDS011;21084;51.098;14.506;2022-09-04T08:03:21;9.85;;;6.05;;
34872;SDS011;21084;51.098;14.506;2022-09-04T08:06:00;6.97;;;5.03;;
34872;SDS011;21084;51.098;14.506;2022-09-04T08:08:46;10.60;;;5.72;;
34872;SDS011;21084;51.098;14.506;2022-09-04T08:11:38;10.05;;;4.65;;
34872;SDS011;21084;51.098;14.506;2022-09-04T08:14:19;9.18;;;5.45;;
34872;SDS011;21084;51.098;14.506;2022-09-04T08:19:38;7.85;;;4.90;;
34872;SDS011;21084;51.098;14.506;2022-09-04T08:22:11;6.10;;;4.35;;
34872;SDS011;21084;51.098;14.506;2022-09-04T08:24:48;6.72;;;4.20;;
34872;SDS011;21084;51.098;14.506;2022-09-04T08:27:46;7.63;;;3.90;;
34872;SDS011;21084;51.098;14.506;2022-09-04T08:30:24;10.07;;;5.38;;
34872;SDS011;21084;51.098;14.506;2022-09-04T08:33:06;7.88;;;4.50;;
34872;SDS011;21084;51.098;14.506;2022-09-04T08:35:55;5.22;;;4.10;;
34872;SDS011;21084;51.098;14.506;2022-09-04T08:38:37;6.82;;;4.57;;
34872;SDS011;21084;51.098;14.506;2022-09-04T08:47:33;6.65;;;4.28;;
34872;SDS011;21084;51.098;14.506;2022-09-04T08:50:37;6.82;;;4.45;;
34872;SDS011;21084;51.098;14.506;2022-09-04T08:53:31;7.60;;;3.85;;
34872;SDS011;21084;51.098;14.506;2022-09-04T08:56:29;5.40;;;4.30;;
34872;SDS011;21084;51.098;14.506;2022-09-04T08:59:16;5.18;;;4.20;;
34872;SDS011;21084;51.098;14.506;2022-09-04T09:15:08;6.28;;;4.60;;
34872;SDS011;21084;51.098;14.506;2022-09-04T09:18:06;7.78;;;4.15;;
34872;SDS011;21084;51.098;14.506;2022-09-04T09:20:52;8.38;;;4.35;;
34872;SDS011;21084;51.098;14.506;2022-09-04T09:23:32;9.53;;;4.40;;
34872;SDS011;21084;51.098;14.506;2022-09-04T09:26:21;7.78;;;4.25;;
34872;SDS011;21084;51.098;14.506;2022-09-04T09:38:25;5.70;;;3.50;;
34872;SDS011;21084;51.098;14.506;2022-09-04T09:47:30;5.45;;;3.70;;
34872;SDS011;21084;51.098;14.506;2022-09-04T09:50:30;5.43;;;4.07;;
34872;SDS011;21084;51.098;14.506;2022-09-04T09:53:42;4.90;;;3.28;;
34872;SDS011;21084;51.098;14.506;2022-09-04T09:56:38;5.00;;;3.90;;
34872;SDS011;21084;51.098;14.506;2022-09-04T09:59:35;11.27;;;3.95;;
34872;SDS011;21084;51.098;14.506;2022-09-04T10:05:53;5.80;;;3.63;;
34872;SDS011;21084;51.098;14.506;2022-09-04T10:15:03;5.32;;;3.97;;
34872;SDS011;21084;51.098;14.506;2022-09-04T10:18:08;6.75;;;4.13;;
34872;SDS011;21084;51.098;14.506;2022-09-04T10:24:27;6.05;;;3.90;;
34872;SDS011;21084;51.098;14.506;2022-09-04T10:30:26;4.53;;;3.30;;
34872;SDS011;21084;51.098;14.506;2022-09-04T10:35:56;4.70;;;3.53;;
34872;SDS011;21084;51.098;14.506;2022-09-04T10:38:37;4.45;;;3.45;;
34872;SDS011;21084;51.098;14.506;2022-09-04T10:41:41;4.47;;;2.95;;
34872;SDS011;21084;51.098;14.506;2022-09-04T10:44:31;7.50;;;3.58;;
34872;SDS011;21084;51.098;14.506;2022-09-04T10:47:35;7.82;;;3.70;;
34872;SDS011;21084;51.098;14.506;2022-09-04T10:50:19;4.80;;;3.33;;
34872;SDS011;21084;51.098;14.506;2022-09-04T10:56:07;4.75;;;3.65;;
34872;SDS011;21084;51.098;14.506;2022-09-04T10:58:52;5.93;;;3.50;;
34872;SDS011;21084;51.098;14.506;2022-09-04T11:02:00;5.32;;;3.33;;
34872;SDS011;21084;51.098;14.506;2022-09-04T11:04:57;6.85;;;3.13;;
34872;SDS011;21084;51.098;14.506;2022-09-04T11:07:52;5.50;;;3.78;;
34872;SDS011;21084;51.098;14.506;2022-09-04T11:10:45;6.65;;;3.95;;
34872;SDS011;21084;51.098;14.506;2022-09-04T11:13:37;8.57;;;4.00;;
34872;SDS011;21084;51.098;14.506;2022-09-04T11:16:47;4.93;;;4.10;;
34872;SDS011;21084;51.098;14.506;2022-09-04T11:22:39;5.78;;;3.95;;
34872;SDS011;21084;51.098;14.506;2022-09-04T11:25:54;8.25;;;3.78;;
34872;SDS011;21084;51.098;14.506;2022-09-04T11:32:00;5.72;;;3.80;;
34872;SDS011;21084;51.098;14.506;2022-09-04T11:34:56;5.53;;;3.50;;
34872;SDS011;21084;51.098;14.506;2022-09-04T11:37:53;5.38;;;3.90;;
34872;SDS011;21084;51.098;14.506;2022-09-04T11:40:37;5.03;;;3.35;;
34872;SDS011;21084;51.098;14.506;2022-09-04T11:43:47;4.90;;;3.90;;
34872;SDS011;21084;51.098;14.506;2022-09-04T11:49:50;5.38;;;3.53;;
34872;SDS011;21084;51.098;14.506;2022-09-04T11:52:25;4.13;;;3.22;;
34872;SDS011;21084;51.098;14.506;2022-09-04T11:55:29;5.13;;;3.67;;
34872;SDS011;21084;51.098;14.506;2022-09-04T11:58:20;5.20;;;3.80;;
34872;SDS011;21084;51.098;14.506;2022-09-04T12:01:12;4.95;;;3.63;;
34872;SDS011;21084;51.098;14.506;2022-09-04T12:04:07;4.60;;;4.00;;
34872;SDS011;21084;51.098;14.506;2022-09-04T12:06:58;4.30;;;3.25;;
34872;SDS011;21084;51.098;14.506;2022-09-04T12:09:50;7.38;;;3.90;;
34872;SDS011;21084;51.098;14.506;2022-09-04T12:12:43;4.35;;;3.60;;
34872;SDS011;21084;51.098;14.506;2022-09-04T12:22:38;5.80;;;3.55;;
34872;SDS011;21084;51.098;14.506;2022-09-04T12:25:37;4.20;;;3.65;;
34872;SDS011;21084;51.098;14.506;2022-09-04T12:28:38;5.30;;;3.88;;
34872;SDS011;21084;51.098;14.506;2022-09-04T12:31:32;5.55;;;3.50;;
34872;SDS011;21084;51.098;14.506;2022-09-04T12:37:27;3.97;;;3.38;;
34872;SDS011;21084;51.098;14.506;2022-09-04T12:40:29;6.47;;;3.33;;
34872;SDS011;21084;51.098;14.506;2022-09-04T12:43:07;6.20;;;3.85;;
34872;SDS011;21084;51.098;14.506;2022-09-04T12:45:51;6.07;;;3.72;;
34872;SDS011;21084;51.098;14.506;2022-09-04T12:48:33;9.95;;;4.25;;
34872;SDS011;21084;51.098;14.506;2022-09-04T12:51:08;6.05;;;3.92;;
34872;SDS011;21084;51.098;14.506;2022-09-04T12:53:53;4.45;;;3.92;;
34872;SDS011;21084;51.098;14.506;2022-09-04T12:56:43;7.40;;;3.60;;
34872;SDS011;21084;51.098;14.506;2022-09-04T12:59:22;6.03;;;3.70;;
34872;SDS011;21084;51.098;14.506;2022-09-04T13:02:03;9.52;;;3.83;;
34872;SDS011;21084;51.098;14.506;2022-09-04T13:04:42;4.00;;;3.60;;
34872;SDS011;21084;51.098;14.506;2022-09-04T13:07:30;5.85;;;4.00;;
34872;SDS011;21084;51.098;14.506;2022-09-04T13:10:11;8.23;;;4.15;;
34872;SDS011;21084;51.098;14.506;2022-09-04T13:12:54;7.47;;;4.00;;
34872;SDS011;21084;51.098;14.506;2022-09-04T13:15:33;5.13;;;4.22;;
34872;SDS011;21084;51.098;14.506;2022-09-04T13:18:14;6.53;;;3.70;;
34872;SDS011;21084;51.098;14.506;2022-09-04T13:20:53;6.38;;;3.90;;
34872;SDS011;21084;51.098;14.506;2022-09-04T13:26:27;5.30;;;4.25;;
34872;SDS011;21084;51.098;14.506;2022-09-04T13:29:08;6.20;;;3.85;;
34872;SDS011;21084;51.098;14.506;2022-09-04T13:31:46;5.72;;;3.80;;
34872;SDS011;21084;51.098;14.506;2022-09-04T13:34:27;5.78;;;3.88;;
34872;SDS011;21084;51.098;14.506;2022-09-04T13:37:07;7.90;;;4.40;;
34872;SDS011;21084;51.098;14.506;2022-09-04T13:42:41;4.72;;;4.07;;
34872;SDS011;21084;51.098;14.506;2022-09-04T13:45:24;10.00;;;4.22;;
34872;SDS011;21084;51.098;14.506;2022-09-04T13:47:55;8.90;;;3.70;;
34872;SDS011;21084;51.098;14.506;2022-09-04T13:50:28;5.15;;;4.28;;
34872;SDS011;21084;51.098;14.506;2022-09-04T13:53:03;4.07;;;3.67;;
34872;SDS011;21084;51.098;14.506;2022-09-04T13:55:40;4.00;;;3.33;;
34872;SDS011;21084;51.098;14.506;2022-09-04T13:58:15;6.88;;;3.97;;
34872;SDS011;21084;51.098;14.506;2022-09-04T14:00:48;4.72;;;3.72;;
34872;SDS011;21084;51.098;14.506;2022-09-04T14:03:25;7.35;;;3.78;;
34872;SDS011;21084;51.098;14.506;2022-09-04T14:06:00;4.97;;;3.60;;
34872;SDS011;21084;51.098;14.506;2022-09-04T14:08:31;3.90;;;3.45;;
34872;SDS011;21084;51.098;14.506;2022-09-04T14:14:04;7.85;;;3.50;;
34872;SDS011;21084;51.098;14.506;2022-09-04T14:16:47;5.10;;;3.70;;
34872;SDS011;21084;51.098;14.506;2022-09-04T14:19:26;10.18;;;3.75;;
34872;SDS011;21084;51.098;14.506;2022-09-04T14:22:15;4.10;;;3.20;;
34872;SDS011;21084;51.098;14.506;2022-09-04T14:25:20;5.80;;;3.78;;
34872;SDS011;21084;51.098;14.506;2022-09-04T14:27:57;6.93;;;3.38;;
34872;SDS011;21084;51.098;14.506;2022-09-04T14:30:30;6.47;;;3.30;;
34872;SDS011;21084;51.098;14.506;2022-09-04T14:33:11;4.97;;;3.50;;
34872;SDS011;21084;51.098;14.506;2022-09-04T14:35:56;5.45;;;3.95;;
34872;SDS011;21084;51.098;14.506;2022-09-04T14:38:45;6.50;;;4.07;;
34872;SDS011;21084;51.098;14.506;2022-09-04T14:41:38;8.88;;;4.00;;
34872;SDS011;21084;51.098;14.506;2022-09-04T14:44:25;7.05;;;3.65;;
34872;SDS011;21084;51.098;14.506;2022-09-04T14:47:05;6.50;;;3.63;;
34872;SDS011;21084;51.098;14.506;2022-09-04T14:49:41;4.50;;;3.35;;
34872;SDS011;21084;51.098;14.506;2022-09-04T14:52:13;4.30;;;3.45;;
34872;SDS011;21084;51.098;14.506;2022-09-04T14:54:45;7.43;;;4.15;;
34872;SDS011;21084;51.098;14.506;2022-09-04T14:57:20;4.50;;;3.28;;
34872;SDS011;21084;51.098;14.506;2022-09-04T14:59:56;5.40;;;3.60;;
34872;SDS011;21084;51.098;14.506;2022-09-04T15:02:30;7.65;;;3.90;;
34872;SDS011;21084;51.098;14.506;2022-09-04T15:05:05;8.20;;;4.13;;
34872;SDS011;21084;51.098;14.506;2022-09-04T15:07:53;4.82;;;3.50;;
34872;SDS011;21084;51.098;14.506;2022-09-04T15:10:26;6.85;;;3.90;;
34872;SDS011;21084;51.098;14.506;2022-09-04T15:16:11;8.93;;;3.60;;
34872;SDS011;21084;51.098;14.506;2022-09-04T15:18:49;4.78;;;3.80;;
34872;SDS011;21084;51.098;14.506;2022-09-04T15:21:23;7.65;;;3.70;;
34872;SDS011;21084;51.098;14.506;2022-09-04T15:24:00;5.40;;;3.67;;
34872;SDS011;21084;51.098;14.506;2022-09-04T15:26:39;4.70;;;3.72;;
34872;SDS011;21084;51.098;14.506;2022-09-04T15:29:13;6.18;;;3.90;;
34872;SDS011;21084;51.098;14.506;2022-09-04T15:31:48;6.60;;;3.97;;
34872;SDS011;21084;51.098;14.506;2022-09-04T15:34:25;6.05;;;3.90;;
34872;SDS011;21084;51.098;14.506;2022-09-04T15:37:08;6.05;;;4.15;;
34872;SDS011;21084;51.098;14.506;2022-09-04T15:39:43;6.05;;;4.15;;
34872;SDS011;21084;51.098;14.506;2022-09-04T15:45:12;5.32;;;4.10;;
34872;SDS011;21084;51.098;14.506;2022-09-04T15:47:53;5.18;;;3.92;;
34872;SDS011;21084;51.098;14.506;2022-09-04T15:50:30;7.28;;;4.88;;
34872;SDS011;21084;51.098;14.506;2022-09-04T15:53:09;9.52;;;5.07;;
34872;SDS011;21084;51.098;14.506;2022-09-04T15:55:58;6.70;;;4.53;;
34872;SDS011;21084;51.098;14.506;2022-09-04T15:58:38;5.60;;;4.35;;
34872;SDS011;21084;51.098;14.506;2022-09-04T16:01:13;5.55;;;4.25;;
34872;SDS011;21084;51.098;14.506;2022-09-04T16:03:45;6.05;;;4.32;;
34872;SDS011;21084;51.098;14.506;2022-09-04T16:06:23;6.75;;;4.60;;
34872;SDS011;21084;51.098;14.506;2022-09-04T16:08:57;6.25;;;4.85;;
34872;SDS011;21084;51.098;14.506;2022-09-04T16:11:30;7.57;;;4.30;;
34872;SDS011;21084;51.098;14.506;2022-09-04T16:14:03;7.38;;;4.95;;
34872;SDS011;21084;51.098;14.506;2022-09-04T16:16:37;7.85;;;4.30;;
34872;SDS011;21084;51.098;14.506;2022-09-04T16:19:13;4.85;;;4.30;;
34872;SDS011;21084;51.098;14.506;2022-09-04T16:21:50;5.00;;;3.92;;
34872;SDS011;21084;51.098;14.506;2022-09-04T16:24:31;6.18;;;4.47;;
34872;SDS011;21084;51.098;14.506;2022-09-04T16:27:03;8.88;;;4.63;;
34872;SDS011;21084;51.098;14.506;2022-09-04T16:29:34;6.15;;;4.60;;
34872;SDS011;21084;51.098;14.506;2022-09-04T16:32:06;6.28;;;4.72;;
34872;SDS011;21084;51.098;14.506;2022-09-04T16:34:38;8.45;;;5.30;;
34872;SDS011;21084;51.098;14.506;2022-09-04T16:37:13;12.25;;;4.55;;
34872;SDS011;21084;51.098;14.506;2022-09-04T16:39:49;9.80;;;4.60;;
34872;SDS011;21084;51.098;14.506;2022-09-04T16:42:27;9.07;;;4.40;;
34872;SDS011;21084;51.098;14.506;2022-09-04T16:45:03;7.70;;;4.65;;
34872;SDS011;21084;51.098;14.506;2022-09-04T16:47:40;5.05;;;4.15;;
34872;SDS011;21084;51.098;14.506;2022-09-04T16:50:15;6.78;;;4.53;;
34872;SDS011;21084;51.098;14.506;2022-09-04T16:52:55;7.63;;;5.00;;
34872;SDS011;21084;51.098;14.506;2022-09-04T16:55:43;5.35;;;4.50;;
34872;SDS011;21084;51.098;14.506;2022-09-04T16:58:20;6.20;;;4.63;;
34872;SDS011;21084;51.098;14.506;2022-09-04T17:01:03;8.75;;;4.93;;
34872;SDS011;21084;51.098;14.506;2022-09-04T17:06:41;7.50;;;4.90;;
34872;SDS011;21084;51.098;14.506;2022-09-04T17:09:19;9.02;;;4.63;;
34872;SDS011;21084;51.098;14.506;2022-09-04T17:11:56;11.43;;;5.47;;
34872;SDS011;21084;51.098;14.506;2022-09-04T17:14:33;7.22;;;5.60;;
34872;SDS011;21084;51.098;14.506;2022-09-04T17:17:04;7.07;;;4.95;;
34872;SDS011;21084;51.098;14.506;2022-09-04T17:20:00;7.20;;;5.10;;
34872;SDS011;21084;51.098;14.506;2022-09-04T17:22:37;9.40;;;5.47;;
34872;SDS011;21084;51.098;14.506;2022-09-04T17:25:29;7.78;;;5.30;;
34872;SDS011;21084;51.098;14.506;2022-09-04T17:28:29;8.68;;;5.85;;
34872;SDS011;21084;51.098;14.506;2022-09-04T17:31:26;10.15;;;5.80;;
34872;SDS011;21084;51.098;14.506;2022-09-04T17:34:01;8.70;;;6.43;;
34872;SDS011;21084;51.098;14.506;2022-09-04T17:36:58;9.40;;;6.90;;
34872;SDS011;21084;51.098;14.506;2022-09-04T17:39:55;17.27;;;8.82;;
34872;SDS011;21084;51.098;14.506;2022-09-04T17:42:49;15.18;;;10.27;;
34872;SDS011;21084;51.098;14.506;2022-09-04T17:45:49;16.10;;;9.98;;
34872;SDS011;21084;51.098;14.506;2022-09-04T17:48:28;17.15;;;10.48;;
34872;SDS011;21084;51.098;14.506;2022-09-04T17:50:59;14.25;;;9.88;;
34872;SDS011;21084;51.098;14.506;2022-09-04T17:53:29;14.43;;;9.38;;